createdAt,value
2022-12-03T00:04:51.589Z,61.23
2022-12-03T00:09:57.686Z,63.05
2022-12-03T00:15:01.012Z,65.02
2022-12-03T00:20:06.295Z,63.46
2022-12-03T00:25:10.151Z,61.49
2022-12-03T00:30:14.438Z,64.48
2022-12-03T00:35:19.510Z,66.16
2022-12-03T00:40:22.950Z,66.14
2022-12-03T00:45:28.838Z,66.78
2022-12-03T00:50:33.517Z,69.05
2022-12-03T00:55:36.913Z,82.16
2022-12-03T01:00:42.597Z,63.36
2022-12-03T01:05:47.212Z,55.56
2022-12-03T01:10:52.647Z,54.24
2022-12-03T01:15:56.112Z,53.10
2022-12-03T01:21:00.808Z,53.42
2022-12-03T01:26:06.631Z,61.09
2022-12-03T01:31:31.075Z,62.36
2022-12-03T01:36:35.846Z,61.73
2022-12-03T01:41:42.583Z,61.16
2022-12-03T01:46:47.660Z,57.98
2022-12-03T01:51:57.068Z,54.55
2022-12-03T01:57:00.999Z,54.76
2022-12-03T02:02:13.015Z,57.08
2022-12-03T02:07:19.910Z,58.24
2022-12-03T02:12:27.321Z,55.64
2022-12-03T02:17:30.719Z,54.60
2022-12-03T02:22:45.206Z,52.91
2022-12-03T02:27:54.802Z,51.63
2022-12-03T02:33:00.824Z,47.20
2022-12-03T02:38:13.206Z,42.67
2022-12-03T02:43:20.039Z,40.64
2022-12-03T02:48:26.970Z,40.54
2022-12-03T02:53:37.215Z,40.09
2022-12-03T02:58:46.420Z,39.26
2022-12-03T03:03:53.536Z,40.25
2022-12-03T03:08:59.100Z,39.19
2022-12-03T03:14:03.968Z,40.66
2022-12-03T03:19:09.602Z,39.63
2022-12-03T03:24:13.136Z,38.22
2022-12-03T03:29:17.917Z,38.52
2022-12-03T03:34:23.555Z,39.12
2022-12-03T03:39:27.143Z,38.80
2022-12-03T03:44:34.503Z,38.49
2022-12-03T03:49:40.751Z,37.93
2022-12-03T03:54:44.225Z,40.27
2022-12-03T03:59:51.309Z,38.72
2022-12-03T04:04:56.953Z,38.38
2022-12-03T04:10:00.192Z,39.34
2022-12-03T04:15:10.537Z,39.18
2022-12-03T04:20:14.258Z,40.03
2022-12-03T04:25:35.259Z,39.26
2022-12-03T04:30:40.217Z,39.36
2022-12-03T04:35:45.894Z,46.02
2022-12-03T04:41:05.059Z,44.98
2022-12-03T04:46:09.761Z,46.50
2022-12-03T04:51:13.064Z,47.20
2022-12-03T04:56:18.557Z,48.40
2022-12-03T05:01:25.653Z,49.15
2022-12-03T05:06:29.089Z,48.52
2022-12-03T05:11:32.605Z,47.98
2022-12-03T05:16:37.316Z,47.29
2022-12-03T05:21:40.644Z,46.20
2022-12-03T05:26:46.239Z,47.81
2022-12-03T05:31:50.852Z,47.03
2022-12-03T05:36:54.105Z,47.95
2022-12-03T05:42:14.911Z,47.21
2022-12-03T05:47:21.815Z,47.44
2022-12-03T05:52:27.230Z,47.40
2022-12-03T05:57:32.941Z,45.21
2022-12-03T06:02:37.772Z,46.34
2022-12-03T06:07:41.333Z,47.02
2022-12-03T06:12:47.279Z,48.30
2022-12-03T06:17:56.950Z,49.78
2022-12-03T06:23:02.500Z,48.34
2022-12-03T06:28:07.082Z,48.24
2022-12-03T06:33:12.069Z,48.90
2022-12-03T06:38:17.480Z,46.17
2022-12-03T06:43:22.999Z,58.94
2022-12-03T06:48:27.656Z,51.32
2022-12-03T06:53:35.607Z,49.31
2022-12-03T06:58:41.159Z,48.43
2022-12-03T07:03:48.526Z,49.17
2022-12-03T07:08:51.805Z,47.34
2022-12-03T07:14:01.592Z,45.33
2022-12-03T07:19:09.620Z,47.20
2022-12-03T07:24:13.270Z,48.56
2022-12-03T07:29:19.100Z,47.72
2022-12-03T07:34:26.160Z,49.00
2022-12-03T07:39:29.451Z,49.35
2022-12-03T07:44:34.888Z,50.51
2022-12-03T07:49:39.587Z,49.51
2022-12-03T07:54:42.909Z,52.11
2022-12-03T07:59:48.431Z,51.01
2022-12-03T08:04:55.663Z,51.80
2022-12-03T08:09:59.452Z,52.31
2022-12-03T08:15:06.777Z,48.14
2022-12-03T08:20:15.606Z,48.56
2022-12-03T08:25:22.859Z,46.90
2022-12-03T08:30:29.192Z,46.20
2022-12-03T08:35:36.045Z,49.04
2022-12-03T08:40:42.701Z,72.64
2022-12-03T08:45:46.767Z,56.36
2022-12-03T08:50:54.734Z,54.08
2022-12-03T08:56:04.275Z,54.33
2022-12-03T09:01:28.664Z,55.70
2022-12-03T09:06:33.455Z,52.59
2022-12-03T09:11:36.759Z,51.15
2022-12-03T09:16:40.266Z,51.19
2022-12-03T09:21:47.377Z,52.86
2022-12-03T09:26:50.892Z,54.23
2022-12-03T09:31:56.340Z,60.81
2022-12-03T09:37:01.166Z,55.79
2022-12-03T09:42:06.989Z,50.63
2022-12-03T09:47:10.467Z,50.27
2022-12-03T09:52:24.983Z,51.06
2022-12-03T09:57:32.020Z,48.82
2022-12-03T10:02:38.002Z,50.67
2022-12-03T10:07:43.611Z,51.60
2022-12-03T10:12:49.833Z,52.47
2022-12-03T10:17:54.585Z,54.92
2022-12-03T10:22:59.254Z,54.63
2022-12-03T10:28:04.012Z,53.25
2022-12-03T10:33:18.442Z,52.13
2022-12-03T10:38:24.001Z,54.61
2022-12-03T10:43:27.454Z,51.94
2022-12-03T10:48:37.854Z,53.17
2022-12-03T10:53:43.059Z,52.11
2022-12-03T10:58:46.302Z,51.28
2022-12-03T11:03:50.416Z,54.96
2022-12-03T11:08:59.584Z,50.74
2022-12-03T11:14:06.032Z,52.31
2022-12-03T11:19:17.422Z,55.37
2022-12-03T11:24:22.592Z,54.42
2022-12-03T11:29:40.757Z,56.54
2022-12-03T11:34:44.223Z,54.07
2022-12-03T11:40:03.348Z,55.48
2022-12-03T11:45:27.568Z,85.48
2022-12-03T11:50:39.437Z,54.29
2022-12-03T11:55:53.177Z,53.17
2022-12-03T12:00:57.422Z,55.04
2022-12-03T12:06:05.520Z,52.68
2022-12-03T12:11:19.083Z,50.98
2022-12-03T12:16:39.716Z,54.78
2022-12-03T12:21:47.860Z,63.02
2022-12-03T12:26:55.363Z,57.84
2022-12-03T12:32:03.997Z,55.39
2022-12-03T12:37:11.462Z,56.14
2022-12-03T12:42:32.864Z,57.42
2022-12-03T12:47:36.646Z,57.27
2022-12-03T12:52:48.371Z,56.25
2022-12-03T12:57:53.423Z,56.28
2022-12-03T13:03:01.702Z,57.13
2022-12-03T13:08:20.182Z,56.99
2022-12-03T13:13:26.658Z,57.61
2022-12-03T13:18:40.803Z,61.27
2022-12-03T13:23:46.588Z,54.75
2022-12-03T13:28:52.243Z,56.15
2022-12-03T13:33:59.256Z,55.71
2022-12-03T13:39:13.562Z,58.18
2022-12-03T13:44:20.656Z,53.12
2022-12-03T13:49:25.123Z,50.55
2022-12-03T13:54:32.246Z,50.18
2022-12-03T13:59:37.122Z,51.71
2022-12-03T14:04:40.445Z,52.68
2022-12-03T14:09:43.798Z,54.83
2022-12-03T14:14:48.677Z,54.20
2022-12-03T14:19:52.606Z,54.45
2022-12-03T14:24:56.201Z,56.29
2022-12-03T14:30:01.607Z,56.02
2022-12-03T14:35:09.918Z,65.14
2022-12-03T14:40:19.577Z,55.21
2022-12-03T14:45:30.912Z,57.55
2022-12-03T14:50:37.701Z,56.94
2022-12-03T14:55:41.080Z,69.08
2022-12-03T15:00:45.704Z,57.16
2022-12-03T15:05:49.135Z,55.50
2022-12-03T15:10:52.390Z,58.82
2022-12-03T15:15:57.202Z,54.71
2022-12-03T15:21:00.529Z,56.18
2022-12-03T15:26:06.199Z,54.84
2022-12-03T15:31:13.036Z,55.60
2022-12-03T15:36:16.809Z,55.07
2022-12-03T15:41:24.435Z,57.89
2022-12-03T15:46:31.322Z,64.67
2022-12-03T15:51:34.774Z,74.62
2022-12-03T15:56:41.114Z,68.64
2022-12-03T16:01:45.896Z,65.83
2022-12-03T16:06:49.239Z,64.22
2022-12-03T16:11:52.855Z,67.29
2022-12-03T16:17:00.262Z,66.36
2022-12-03T16:22:03.783Z,68.96
2022-12-03T16:27:12.305Z,71.55
2022-12-03T16:32:19.309Z,72.70
2022-12-03T16:37:22.814Z,70.71
2022-12-03T16:42:27.463Z,73.77
2022-12-03T16:47:34.286Z,74.17
2022-12-03T16:52:37.959Z,74.84
2022-12-03T16:57:41.207Z,80.03
2022-12-03T17:02:46.018Z,77.95
2022-12-03T17:07:49.526Z,76.91
2022-12-03T17:13:10.113Z,76.67
2022-12-03T17:18:15.372Z,77.15
2022-12-03T17:23:18.695Z,77.13
2022-12-03T17:28:24.508Z,78.78
2022-12-03T17:33:33.855Z,77.78
2022-12-03T17:38:39.290Z,81.36
2022-12-03T17:43:42.963Z,92.45
2022-12-03T17:48:47.651Z,82.34
2022-12-03T17:53:55.733Z,96.88
2022-12-03T17:59:01.239Z,84.28
2022-12-03T18:04:09.726Z,82.27
2022-12-03T18:09:15.414Z,83.31
2022-12-03T18:14:18.981Z,78.47
2022-12-03T18:19:23.749Z,82.25
2022-12-03T18:24:27.328Z,82.71
2022-12-03T18:29:30.699Z,84.36
2022-12-03T18:34:37.534Z,85.35
2022-12-03T18:39:43.141Z,82.43
2022-12-03T18:44:49.783Z,81.68
2022-12-03T18:49:59.749Z,80.45
2022-12-03T18:55:03.123Z,81.69
2022-12-03T19:00:13.659Z,92.65
2022-12-03T19:05:21.139Z,81.01
2022-12-03T19:10:26.896Z,80.70
2022-12-03T19:15:30.216Z,78.32
2022-12-03T19:20:35.473Z,78.04
2022-12-03T19:25:44.343Z,98.18
2022-12-03T19:30:47.696Z,79.12
2022-12-03T19:35:52.358Z,77.84
2022-12-03T19:41:02.302Z,75.60
2022-12-03T19:46:12.352Z,75.60
2022-12-03T19:51:34.075Z,79.79
2022-12-03T19:56:38.522Z,82.41
2022-12-03T20:01:43.323Z,74.55
2022-12-03T20:06:52.954Z,70.17
2022-12-03T20:11:58.583Z,77.34
2022-12-03T20:17:05.418Z,78.52
2022-12-03T20:22:10.621Z,85.26
2022-12-03T20:27:19.721Z,82.54
2022-12-03T20:32:26.145Z,76.88
2022-12-03T20:37:35.176Z,79.46
2022-12-03T20:42:38.599Z,87.23
2022-12-03T20:47:44.221Z,80.32
2022-12-03T20:53:09.706Z,80.99
2022-12-03T20:58:15.161Z,79.14
2022-12-03T21:03:18.540Z,81.01
2022-12-03T21:08:40.531Z,78.52
2022-12-03T21:13:48.605Z,87.03
2022-12-03T21:18:51.986Z,85.13
2022-12-03T21:23:57.179Z,85.81
2022-12-03T21:29:00.746Z,84.03
2022-12-03T21:34:05.082Z,86.21
2022-12-03T21:39:12.398Z,83.62
2022-12-03T21:44:17.893Z,84.01
2022-12-03T21:49:22.693Z,86.27
2022-12-03T21:54:27.314Z,84.08
2022-12-03T21:59:30.601Z,77.19
2022-12-03T22:04:33.932Z,74.59
2022-12-03T22:09:38.829Z,76.95
2022-12-03T22:14:44.639Z,76.46
2022-12-03T22:19:47.953Z,81.01
2022-12-03T22:24:52.737Z,77.81
2022-12-03T22:29:56.546Z,73.51
2022-12-03T22:35:00.032Z,74.02
2022-12-03T22:40:07.848Z,71.78
2022-12-03T22:45:15.869Z,74.14
2022-12-03T22:50:19.140Z,74.23
2022-12-03T22:55:26.124Z,74.17
2022-12-03T23:00:34.855Z,74.06
2022-12-03T23:05:39.370Z,71.16
2022-12-03T23:10:45.345Z,68.31
2022-12-03T23:15:49.745Z,66.43
2022-12-03T23:20:55.026Z,67.91
2022-12-03T23:26:00.313Z,69.64
2022-12-03T23:31:04.668Z,72.86
2022-12-03T23:36:08.414Z,71.38
2022-12-03T23:41:14.253Z,72.21
2022-12-03T23:46:21.808Z,68.38
2022-12-03T23:51:25.729Z,71.48
2022-12-03T23:56:31.924Z,69.15
